createdAt,value
2023-01-23T00:02:16.810Z,100775.81
2023-01-23T00:04:44.091Z,100774.69
2023-01-23T00:07:11.028Z,100767.28
2023-01-23T00:09:37.891Z,100752.78
2023-01-23T00:12:05.877Z,100766.50
2023-01-23T00:14:32.900Z,100750.88
2023-01-23T00:16:59.865Z,100751.97
2023-01-23T00:19:26.753Z,100740.50
2023-01-23T00:21:53.565Z,100725.28
2023-01-23T00:24:20.363Z,100729.75
2023-01-23T00:26:47.397Z,100727.25
2023-01-23T00:29:15.714Z,100718.44
2023-01-23T00:31:42.727Z,100711.69
2023-01-23T00:34:13.389Z,100713.69
2023-01-23T00:36:42.999Z,100714.22
2023-01-23T00:39:16.544Z,100706.66
2023-01-23T00:41:44.990Z,100723.97
2023-01-23T00:44:12.005Z,100721.59
2023-01-23T00:46:39.326Z,100734.97
2023-01-23T00:49:06.379Z,100739.91
2023-01-23T00:51:34.209Z,100719.41
2023-01-23T00:54:01.939Z,100731.69
2023-01-23T00:56:28.987Z,100726.97
2023-01-23T00:58:56.040Z,100733.09
2023-01-23T01:01:23.125Z,100717.31
2023-01-23T01:03:50.533Z,100709.47
2023-01-23T01:06:17.687Z,100706.56
2023-01-23T01:08:44.733Z,100718.53
2023-01-23T01:11:11.816Z,100702.59
2023-01-23T01:13:39.297Z,100715.59
2023-01-23T01:16:06.944Z,100717.72
2023-01-23T01:18:36.099Z,100705.56
2023-01-23T01:21:08.040Z,100693.97
2023-01-23T01:23:35.229Z,100696.47
2023-01-23T01:26:02.734Z,100683.63
2023-01-23T01:28:30.760Z,100695.69
2023-01-23T01:30:58.249Z,100654.94
2023-01-23T01:33:28.471Z,100676.59
2023-01-23T01:35:56.794Z,100672.44
2023-01-23T01:38:24.227Z,100661.13
2023-01-23T01:40:51.218Z,100650.63
2023-01-23T01:43:24.131Z,100657.06
2023-01-23T01:46:14.745Z,100655.72
2023-01-23T01:48:50.435Z,100635.31
2023-01-23T01:51:20.159Z,100631.13
2023-01-23T01:53:52.700Z,100617.44
2023-01-23T01:56:20.442Z,100621.31
2023-01-23T01:58:52.292Z,100612.06
2023-01-23T02:01:19.541Z,100609.44
2023-01-23T02:03:47.182Z,100610.53
2023-01-23T02:06:14.372Z,100596.50
2023-01-23T02:09:01.802Z,100596.03
2023-01-23T02:11:29.734Z,100588.84
2023-01-23T02:13:57.286Z,100586.25
2023-01-23T02:16:29.730Z,100574.38
2023-01-23T02:19:03.393Z,100575.22
2023-01-23T02:21:30.500Z,100558.44
2023-01-23T02:24:08.305Z,100554.72
2023-01-23T02:26:40.542Z,100546.06
2023-01-23T02:29:08.712Z,100535.59
2023-01-23T02:31:46.174Z,100536.56
2023-01-23T02:34:15.070Z,100561.31
2023-01-23T02:36:47.001Z,100534.00
2023-01-23T02:39:17.456Z,100517.47
2023-01-23T02:41:50.939Z,100528.38
2023-01-23T02:44:28.591Z,100507.22
2023-01-23T02:47:08.044Z,100503.88
2023-01-23T02:49:35.058Z,100519.59
2023-01-23T02:52:05.953Z,100506.53
2023-01-23T02:54:34.734Z,100500.53
2023-01-23T02:57:01.596Z,100500.47
2023-01-23T02:59:48.087Z,100517.16
2023-01-23T03:02:15.904Z,100533.78
2023-01-23T03:04:42.888Z,100535.16
2023-01-23T03:07:09.825Z,100550.91
2023-01-23T03:09:37.639Z,100533.03
2023-01-23T03:12:04.660Z,100536.75
2023-01-23T03:14:32.646Z,100538.78
2023-01-23T03:16:59.537Z,100506.78
2023-01-23T03:19:31.951Z,100533.81
2023-01-23T03:21:59.287Z,100505.41
2023-01-23T03:24:27.133Z,100512.56
2023-01-23T03:26:54.060Z,100517.19
2023-01-23T03:29:45.179Z,100526.00
2023-01-23T03:32:15.346Z,100509.34
2023-01-23T03:34:44.001Z,100506.03
2023-01-23T03:37:12.751Z,100513.34
2023-01-23T03:40:01.057Z,100515.03
2023-01-23T03:42:28.002Z,100507.03
2023-01-23T03:44:57.528Z,100500.22
2023-01-23T03:47:27.515Z,100471.78
2023-01-23T03:49:55.328Z,100502.31
2023-01-23T03:52:22.705Z,100461.94
2023-01-23T03:54:49.892Z,100493.81
2023-01-23T03:57:16.830Z,100512.94
2023-01-23T03:59:52.915Z,100509.22
2023-01-23T04:02:24.809Z,100536.34
2023-01-23T04:04:51.891Z,100553.13
2023-01-23T04:07:18.817Z,100527.00
2023-01-23T04:09:45.705Z,100552.13
2023-01-23T04:12:12.697Z,100551.38
2023-01-23T04:14:43.292Z,100539.00
2023-01-23T04:17:12.956Z,100552.91
2023-01-23T04:19:39.894Z,100546.09
2023-01-23T04:22:07.269Z,100533.28
2023-01-23T04:24:40.459Z,100550.97
2023-01-23T04:27:07.328Z,100565.84
2023-01-23T04:29:35.188Z,100554.84
2023-01-23T04:32:02.886Z,100531.06
2023-01-23T04:34:31.693Z,100542.84
2023-01-23T04:36:58.684Z,100547.00
2023-01-23T04:39:25.984Z,100539.34
2023-01-23T04:41:53.484Z,100552.63
2023-01-23T04:44:36.705Z,100533.22
2023-01-23T04:47:18.576Z,100524.63
2023-01-23T04:49:46.046Z,100524.31
2023-01-23T04:52:12.885Z,100520.28
2023-01-23T04:54:44.559Z,100525.47
2023-01-23T04:57:11.436Z,100508.06
2023-01-23T04:59:38.480Z,100510.78
2023-01-23T05:02:05.631Z,100498.88
2023-01-23T05:04:39.024Z,100503.19
2023-01-23T05:07:05.985Z,100496.91
2023-01-23T05:09:39.611Z,100497.25
2023-01-23T05:12:07.123Z,100510.91
2023-01-23T05:14:37.612Z,100507.25
2023-01-23T05:17:04.947Z,100494.66
2023-01-23T05:19:39.718Z,100506.78
2023-01-23T05:22:06.964Z,100501.63
2023-01-23T05:24:33.800Z,100504.63
2023-01-23T05:27:00.878Z,100504.63
2023-01-23T05:29:30.565Z,100501.97
2023-01-23T05:32:03.142Z,100505.47
2023-01-23T05:34:39.447Z,100500.00
2023-01-23T05:37:32.364Z,100506.00
2023-01-23T05:40:06.792Z,100516.97
2023-01-23T05:42:52.160Z,100513.97
2023-01-23T05:45:37.828Z,100515.81
2023-01-23T05:48:10.965Z,100515.28
2023-01-23T05:50:38.000Z,100516.63
2023-01-23T05:53:04.950Z,100518.63
2023-01-23T05:55:33.125Z,100515.13
2023-01-23T05:58:00.300Z,100532.72
2023-01-23T06:00:29.956Z,100524.97
2023-01-23T06:03:17.348Z,100532.81
2023-01-23T06:05:51.093Z,100539.94
2023-01-23T06:08:25.653Z,100539.09
2023-01-23T06:10:52.499Z,100543.13
2023-01-23T06:13:19.865Z,100541.66
2023-01-23T06:15:47.126Z,100564.66
2023-01-23T06:18:14.319Z,100562.97
2023-01-23T06:20:41.240Z,100562.13
2023-01-23T06:23:08.625Z,100559.16
2023-01-23T06:25:37.553Z,100568.34
2023-01-23T06:28:07.070Z,100561.88
2023-01-23T06:30:35.468Z,100559.06
2023-01-23T06:33:03.947Z,100561.44
2023-01-23T06:35:36.010Z,100571.44
2023-01-23T06:38:03.586Z,100564.28
2023-01-23T06:40:30.581Z,100564.28
2023-01-23T06:43:10.314Z,100576.63
2023-01-23T06:45:37.212Z,100566.66
2023-01-23T06:48:04.826Z,100568.16
2023-01-23T06:50:31.923Z,100551.66
2023-01-23T06:52:58.792Z,100575.00
2023-01-23T06:55:25.819Z,100565.31
2023-01-23T06:57:53.605Z,100563.34
2023-01-23T07:00:21.145Z,100584.16
2023-01-23T07:02:49.743Z,100580.34
2023-01-23T07:05:17.606Z,100578.66
2023-01-23T07:07:46.734Z,100587.03
2023-01-23T07:10:13.716Z,100598.31
2023-01-23T07:12:40.709Z,100589.84
2023-01-23T07:15:08.928Z,100601.31
2023-01-23T07:17:39.486Z,100586.84
2023-01-23T07:20:07.135Z,100614.28
2023-01-23T07:22:40.622Z,100592.03
2023-01-23T07:25:08.205Z,100594.22
2023-01-23T07:27:35.204Z,100609.50
2023-01-23T07:30:02.176Z,100615.22
2023-01-23T07:32:29.146Z,100629.66
2023-01-23T07:34:56.119Z,100617.31
2023-01-23T07:37:22.970Z,100616.81
2023-01-23T07:39:50.861Z,100623.28
2023-01-23T07:42:21.336Z,100622.28
2023-01-23T07:44:48.374Z,100635.75
2023-01-23T07:47:15.871Z,100627.81
2023-01-23T07:49:42.876Z,100631.16
2023-01-23T07:52:10.437Z,100631.97
2023-01-23T07:54:37.838Z,100633.97
2023-01-23T07:57:04.850Z,100625.00
2023-01-23T07:59:31.820Z,100618.19
2023-01-23T08:01:59.769Z,100617.72
2023-01-23T08:04:26.754Z,100613.38
2023-01-23T08:06:53.811Z,100620.53
2023-01-23T08:09:20.928Z,100629.19
2023-01-23T08:11:47.941Z,100612.53
2023-01-23T08:14:16.585Z,100626.69
2023-01-23T08:16:46.672Z,100630.84
2023-01-23T08:19:13.688Z,100646.84
2023-01-23T08:21:40.651Z,100630.84
2023-01-23T08:24:08.034Z,100623.91
2023-01-23T08:26:35.144Z,100635.22
2023-01-23T08:29:03.959Z,100629.22
2023-01-23T08:31:31.025Z,100628.53
2023-01-23T08:33:58.101Z,100645.72
2023-01-23T08:36:25.192Z,100639.72
2023-01-23T08:39:02.310Z,100632.22
2023-01-23T08:41:29.255Z,100646.38
2023-01-23T08:43:58.503Z,100642.88
2023-01-23T08:46:25.566Z,100641.06
2023-01-23T08:48:52.502Z,100660.19
2023-01-23T08:51:19.714Z,100651.34
2023-01-23T08:53:46.659Z,100670.31
2023-01-23T08:56:21.984Z,100643.19
2023-01-23T08:58:49.498Z,100646.53
2023-01-23T09:01:27.250Z,100641.25
2023-01-23T09:03:55.247Z,100649.25
2023-01-23T09:06:23.012Z,100650.91
2023-01-23T09:08:49.931Z,100669.03
2023-01-23T09:11:18.113Z,100668.53
2023-01-23T09:13:47.176Z,100672.50
2023-01-23T09:16:14.347Z,100661.34
2023-01-23T09:18:41.362Z,100687.13
2023-01-23T09:21:10.463Z,100682.66
2023-01-23T09:23:37.825Z,100688.44
2023-01-23T09:26:12.207Z,100676.28
2023-01-23T09:28:42.230Z,100695.06
2023-01-23T09:31:12.832Z,100680.59
2023-01-23T09:33:41.176Z,100680.91
2023-01-23T09:36:09.123Z,100689.72
2023-01-23T09:38:36.477Z,100714.13
2023-01-23T09:41:20.707Z,100678.06
2023-01-23T09:44:05.529Z,100706.06
2023-01-23T09:46:48.284Z,100683.91
2023-01-23T09:49:28.882Z,100706.88
2023-01-23T09:52:01.973Z,100702.25
2023-01-23T09:54:32.065Z,100684.94
2023-01-23T09:57:04.644Z,100703.09
2023-01-23T09:59:50.140Z,100688.47
2023-01-23T10:02:27.060Z,100683.50
2023-01-23T10:04:56.311Z,100689.19
2023-01-23T10:07:34.477Z,100706.31
2023-01-23T10:10:13.408Z,100706.19
2023-01-23T10:12:55.109Z,100694.53
2023-01-23T10:15:42.965Z,100688.50
2023-01-23T10:18:33.319Z,100689.69
2023-01-23T10:21:18.690Z,100699.19
2023-01-23T10:23:52.030Z,100702.19
2023-01-23T10:26:23.660Z,100697.53
2023-01-23T10:28:57.995Z,100703.19
2023-01-23T10:31:36.353Z,100695.88
2023-01-23T10:34:09.194Z,100683.72
2023-01-23T10:37:17.152Z,100699.03
2023-01-23T10:39:59.977Z,100702.50
2023-01-23T10:42:28.069Z,100705.31
2023-01-23T10:44:55.928Z,100700.84
2023-01-23T10:47:37.102Z,100707.16
2023-01-23T10:50:08.728Z,100713.03
2023-01-23T10:52:43.110Z,100717.19
2023-01-23T10:55:20.602Z,100698.00
2023-01-23T10:57:50.203Z,100706.53
2023-01-23T11:00:37.870Z,100700.06
2023-01-23T11:03:20.317Z,100709.03
2023-01-23T11:05:53.496Z,100685.41
2023-01-23T11:08:29.464Z,100700.75
2023-01-23T11:11:14.914Z,100695.44
2023-01-23T11:13:47.649Z,100690.25
2023-01-23T11:16:23.983Z,100689.09
2023-01-23T11:19:11.907Z,100691.75
2023-01-23T11:21:55.655Z,100687.59
2023-01-23T11:24:38.627Z,100689.94
2023-01-23T11:27:17.529Z,100691.75
2023-01-23T11:30:08.907Z,100706.25
2023-01-23T11:32:46.800Z,100672.28
2023-01-23T11:35:20.479Z,100703.22
2023-01-23T11:37:47.882Z,100703.06
2023-01-23T11:40:19.813Z,100703.09
2023-01-23T11:42:47.587Z,100694.78
2023-01-23T11:45:46.848Z,100705.44
2023-01-23T11:48:35.494Z,100700.94
2023-01-23T11:51:17.732Z,100714.44
2023-01-23T11:54:07.806Z,100715.41
2023-01-23T11:56:53.382Z,100715.59
2023-01-23T11:59:35.991Z,100717.72
2023-01-23T12:03:04.902Z,100729.06
2023-01-23T12:06:19.948Z,100721.91
2023-01-23T12:09:07.808Z,100725.09
2023-01-23T12:11:40.179Z,100729.59
2023-01-23T12:14:21.407Z,100729.63
2023-01-23T12:17:09.199Z,100729.75
2023-01-23T12:19:36.186Z,100732.75
2023-01-23T12:22:19.331Z,100737.06
2023-01-23T12:24:55.355Z,100733.75
2023-01-23T12:27:44.648Z,100733.91
2023-01-23T12:30:32.871Z,100738.41
2023-01-23T12:33:21.271Z,100744.41
2023-01-23T12:36:12.621Z,100744.25
2023-01-23T12:39:02.455Z,100743.25
2023-01-23T12:41:38.162Z,100755.72
2023-01-23T12:44:21.376Z,100764.22
2023-01-23T12:47:06.968Z,100758.91
2023-01-23T12:49:47.490Z,100768.88
2023-01-23T12:52:14.350Z,100767.88
2023-01-23T12:54:49.224Z,100779.19
2023-01-23T12:57:46.278Z,100790.00
2023-01-23T13:00:36.769Z,100790.19
2023-01-23T13:03:16.509Z,100792.16
2023-01-23T13:06:01.613Z,100795.97
2023-01-23T13:08:38.097Z,100788.50
2023-01-23T13:11:39.822Z,100810.00
2023-01-23T13:15:10.162Z,100807.31
2023-01-23T13:17:40.195Z,100803.28
2023-01-23T13:20:38.481Z,100813.47
2023-01-23T13:23:29.472Z,100814.63
2023-01-23T13:26:23.377Z,100821.47
2023-01-23T13:28:58.792Z,100821.97
2023-01-23T13:31:46.923Z,100812.84
2023-01-23T13:34:17.043Z,100824.34
2023-01-23T13:36:46.038Z,100840.16
2023-01-23T13:39:19.802Z,100829.97
2023-01-23T13:41:52.537Z,100836.16
2023-01-23T13:44:41.479Z,100832.50
2023-01-23T14:22:35.616Z,100876.72
2023-01-23T14:25:02.965Z,100881.75
2023-01-23T14:27:52.281Z,100885.91
2023-01-23T14:30:27.437Z,100888.44
2023-01-23T14:32:54.811Z,100888.28
2023-01-23T14:35:32.790Z,100891.63
2023-01-23T14:38:04.840Z,100892.75
2023-01-23T14:40:46.780Z,100892.25
2023-01-23T14:43:23.190Z,100916.09
2023-01-23T14:45:59.738Z,100911.72
2023-01-23T14:48:27.592Z,100908.25
2023-01-23T14:51:09.114Z,100920.41
2023-01-23T14:53:40.394Z,100926.44
2023-01-23T14:56:09.903Z,100930.75
2023-01-23T14:58:38.050Z,100929.25
2023-01-23T15:01:05.439Z,100932.06
2023-01-23T15:03:41.686Z,100928.09
2023-01-23T15:06:29.739Z,100934.94
2023-01-23T15:09:07.082Z,100936.31
2023-01-23T15:11:35.134Z,100940.13
2023-01-23T15:14:02.456Z,100939.66
2023-01-23T15:16:36.264Z,100932.13
2023-01-23T15:19:07.587Z,100949.31
2023-01-23T15:21:36.325Z,100939.94
2023-01-23T15:24:26.662Z,100942.78
2023-01-23T15:27:05.939Z,100944.31
2023-01-23T15:29:33.834Z,100954.66
2023-01-23T15:32:01.688Z,100945.00
2023-01-23T15:34:34.061Z,100946.66
2023-01-23T15:37:06.484Z,100959.66
2023-01-23T15:39:51.688Z,100955.84
2023-01-23T15:42:18.487Z,100960.03
2023-01-23T15:44:45.430Z,100964.06
2023-01-23T15:47:12.343Z,100970.91
2023-01-23T15:49:40.504Z,100973.72
2023-01-23T15:52:30.527Z,100970.09
2023-01-23T15:55:00.811Z,100964.75
2023-01-23T15:57:27.603Z,100972.38
2023-01-23T15:59:54.490Z,100986.53
2023-01-23T16:02:33.171Z,100988.50
2023-01-23T16:05:02.135Z,100997.25
2023-01-23T16:07:34.888Z,101005.09
2023-01-23T16:10:23.383Z,101018.56
2023-01-23T16:12:53.780Z,101023.22
2023-01-23T16:15:23.622Z,101027.31
2023-01-23T16:17:51.071Z,101037.50
2023-01-23T16:20:23.946Z,101047.22
2023-01-23T16:22:54.147Z,101038.34
2023-01-23T16:25:43.080Z,101043.47
2023-01-23T16:28:23.075Z,101037.47
2023-01-23T16:30:52.056Z,101040.66
2023-01-23T16:33:20.560Z,101038.06
2023-01-23T16:35:49.644Z,101037.06
2023-01-23T16:38:23.858Z,101041.09
2023-01-23T16:40:53.474Z,101038.19
2023-01-23T16:43:21.472Z,101029.19
2023-01-23T16:45:48.864Z,101029.19
2023-01-23T16:48:26.295Z,101032.72
2023-01-23T16:50:59.068Z,101025.38
2023-01-23T16:53:37.389Z,101026.59
2023-01-23T16:56:05.311Z,101028.81
2023-01-23T16:58:38.883Z,101027.13
2023-01-23T17:01:13.898Z,101026.81
2023-01-23T17:03:41.488Z,101037.31
2023-01-23T17:06:15.852Z,101040.81
2023-01-23T17:08:43.010Z,101041.00
2023-01-23T17:11:17.892Z,101046.16
2023-01-23T17:13:44.817Z,101052.69
2023-01-23T17:16:26.179Z,101062.28
2023-01-23T17:18:54.950Z,101068.59
2023-01-23T17:21:34.800Z,101075.25
2023-01-23T17:24:01.821Z,101069.41
2023-01-23T17:26:28.960Z,101073.63
2023-01-23T17:28:56.000Z,101082.47
2023-01-23T17:31:25.756Z,101089.94
2023-01-23T17:33:52.880Z,101098.47
2023-01-23T17:36:20.066Z,101096.66
2023-01-23T17:38:47.439Z,101092.00
2023-01-23T17:41:16.534Z,101101.84
2023-01-23T17:43:48.513Z,101103.72
2023-01-23T17:46:44.623Z,101105.84
2023-01-23T17:49:31.276Z,101105.13
2023-01-23T17:52:00.874Z,101111.13
2023-01-23T17:54:27.796Z,101120.38
2023-01-23T17:56:54.737Z,101117.09
2023-01-23T17:59:21.919Z,101118.25
2023-01-23T18:01:48.864Z,101119.09
2023-01-23T18:04:18.505Z,101112.88
2023-01-23T18:06:46.116Z,101125.00
2023-01-23T18:09:14.121Z,101120.19
2023-01-23T18:11:44.180Z,101108.59
2023-01-23T18:14:30.668Z,101113.06
2023-01-23T18:16:58.002Z,101124.25
2023-01-23T18:19:27.653Z,101125.53
2023-01-23T18:21:56.841Z,101132.41
2023-01-23T18:24:30.549Z,101132.31
2023-01-23T18:27:18.831Z,101142.25
2023-01-23T18:30:04.450Z,101135.03
2023-01-23T18:32:43.591Z,101149.66
2023-01-23T18:35:33.770Z,101147.16
2023-01-23T18:38:21.467Z,101151.25
2023-01-23T18:41:07.051Z,101145.88
2023-01-23T18:43:38.804Z,101156.53
2023-01-23T18:46:11.955Z,101168.69
2023-01-23T18:48:41.595Z,101163.25
2023-01-23T18:51:20.226Z,101171.94
2023-01-23T18:53:55.456Z,101179.19
2023-01-23T18:56:27.527Z,101178.97
2023-01-23T18:59:12.409Z,101184.00
2023-01-23T19:01:53.495Z,101187.31
2023-01-23T19:05:10.252Z,101195.06
2023-01-23T19:07:37.838Z,101207.91
2023-01-23T19:10:12.827Z,101217.97
2023-01-23T19:13:01.204Z,101205.38
2023-01-23T19:15:43.315Z,101208.03
2023-01-23T19:18:44.888Z,101214.44
2023-01-23T19:21:18.104Z,101215.59
2023-01-23T19:23:46.811Z,101223.28
2023-01-23T19:26:15.059Z,101220.03
2023-01-23T19:28:42.172Z,101225.00
2023-01-23T19:31:20.924Z,101222.78
2023-01-23T19:33:48.337Z,101231.47
2023-01-23T19:36:15.229Z,101225.72
2023-01-23T19:38:42.164Z,101222.75
2023-01-23T19:41:19.761Z,101231.53
2023-01-23T19:43:48.455Z,101228.56
2023-01-23T19:46:15.559Z,101227.09
2023-01-23T19:48:42.615Z,101229.63
2023-01-23T19:51:19.371Z,101231.03
2023-01-23T19:53:46.818Z,101233.56
2023-01-23T19:56:17.995Z,101238.94
2023-01-23T19:58:45.414Z,101241.28
2023-01-23T20:01:23.463Z,101238.22
2023-01-23T20:03:51.141Z,101249.69
2023-01-23T20:06:18.169Z,101249.19
2023-01-23T20:08:45.036Z,101249.84
2023-01-23T20:11:12.607Z,101250.78
2023-01-23T20:13:43.209Z,101256.72
2023-01-23T20:16:20.926Z,101255.59
2023-01-23T20:18:49.045Z,101256.00
2023-01-23T20:21:17.653Z,101254.88
2023-01-23T20:23:45.496Z,101255.19
2023-01-23T20:26:13.310Z,101252.22
2023-01-23T20:28:40.468Z,101257.75
2023-01-23T20:31:10.140Z,101262.84
2023-01-23T20:33:38.012Z,101258.50
2023-01-23T20:36:05.917Z,101267.91
2023-01-23T20:38:33.153Z,101267.50
2023-01-23T20:41:20.415Z,101268.41
2023-01-23T20:43:47.839Z,101274.56
2023-01-23T20:46:16.195Z,101276.41
2023-01-23T20:48:44.945Z,101266.28
2023-01-23T20:51:13.990Z,101277.66
2023-01-23T20:53:41.125Z,101267.56
2023-01-23T20:56:11.554Z,101273.16
2023-01-23T20:59:00.145Z,101279.78
2023-01-23T21:01:30.063Z,101292.81
2023-01-23T21:03:57.009Z,101295.47
2023-01-23T21:06:23.912Z,101301.63
2023-01-23T21:08:50.781Z,101302.16
2023-01-23T21:11:19.796Z,101314.50
2023-01-23T21:13:53.613Z,101317.41
2023-01-23T21:16:20.759Z,101314.34
2023-01-23T21:18:47.994Z,101309.00
2023-01-23T21:21:19.964Z,101300.16
2023-01-23T21:23:49.405Z,101306.03
2023-01-23T21:26:18.519Z,101302.25
2023-01-23T21:28:47.157Z,101307.66
2023-01-23T21:31:26.630Z,101311.63
2023-01-23T21:33:54.404Z,101311.50
2023-01-23T21:36:24.028Z,101312.34
2023-01-23T21:38:51.540Z,101318.69
2023-01-23T21:41:19.085Z,101319.50
2023-01-23T21:43:46.295Z,101321.47
2023-01-23T21:46:13.883Z,101315.31
2023-01-23T21:48:40.877Z,101326.75
2023-01-23T21:51:13.559Z,101327.31
2023-01-23T21:53:43.349Z,101324.53
2023-01-23T21:56:11.994Z,101333.47
2023-01-23T21:58:39.065Z,101328.03
2023-01-23T22:01:29.842Z,101327.94
2023-01-23T22:03:56.964Z,101320.63
2023-01-23T22:06:23.765Z,101328.72
2023-01-23T22:08:50.785Z,101325.78
2023-01-23T22:11:17.592Z,101320.72
2023-01-23T22:13:44.561Z,101319.75
2023-01-23T22:16:12.471Z,101326.19
2023-01-23T22:18:39.444Z,101325.66
2023-01-23T22:21:07.345Z,101312.03
2023-01-23T22:23:35.018Z,101310.91
2023-01-23T22:26:08.070Z,101307.56
2023-01-23T22:28:35.696Z,101304.91
2023-01-23T22:31:11.875Z,101316.44
2023-01-23T22:33:41.188Z,101310.66
2023-01-23T22:36:12.156Z,101322.03
2023-01-23T22:38:39.232Z,101320.34
2023-01-23T22:41:07.086Z,101313.19
2023-01-23T22:43:37.251Z,101329.06
2023-01-23T22:46:13.599Z,101327.94
2023-01-23T22:48:40.965Z,101322.47
2023-01-23T22:51:17.134Z,101337.88
2023-01-23T22:53:44.158Z,101329.75
2023-01-23T22:56:11.354Z,101339.81
2023-01-23T22:58:38.640Z,101329.69
2023-01-23T23:01:06.255Z,101327.50
2023-01-23T23:03:34.977Z,101323.44
2023-01-23T23:06:07.772Z,101329.91
2023-01-23T23:08:35.467Z,101346.69
2023-01-23T23:11:11.096Z,101358.47
2023-01-23T23:13:39.668Z,101362.97
2023-01-23T23:16:15.515Z,101356.38
2023-01-23T23:18:42.384Z,101357.50
2023-01-23T23:21:11.998Z,101345.19
2023-01-23T23:23:39.304Z,101343.38
2023-01-23T23:26:08.738Z,101335.94
2023-01-23T23:28:37.109Z,101342.09
2023-01-23T23:31:04.682Z,101352.47
2023-01-23T23:33:31.599Z,101353.03
2023-01-23T23:35:58.425Z,101361.13
2023-01-23T23:38:25.369Z,101376.69
2023-01-23T23:41:06.608Z,101374.72
2023-01-23T23:43:34.144Z,101371.66
2023-01-23T23:46:03.088Z,101365.06
2023-01-23T23:48:31.598Z,101362.53
2023-01-23T23:51:06.614Z,101358.06
2023-01-23T23:53:34.752Z,101350.47
2023-01-23T23:56:01.747Z,101338.16
2023-01-23T23:58:28.671Z,101350.22
